Time;durP1;ratioP1;P1;durP2;ratioP2;P2;SDS_P1;SDS_P2;PMS_P1;PMS_P2;Temp;Humidity;BMP_temperature;BMP_pressure;BME280_temperature;BME280_humidity;BME280_pressure;Samples;Min_cycle;Max_cycle;Signal;HPM_P1;HPM_P2
2022/03/29 00:01:22;;;;;;;21.98;10.18;;;;;;;4.74;88.48;101406.16;4992377;28;20260;-43
2022/03/29 00:03:48;;;;;;;25.17;9.52;;;;;;;4.67;88.71;101402.66;4992190;28;20278;-41
2022/03/29 00:06:13;;;;;;;20.17;8.68;;;;;;;4.72;89.29;101389.38;4992070;28;20601;-41
2022/03/29 00:08:39;;;;;;;32.40;9.32;;;;;;;4.64;89.02;101396.50;4992273;28;20274;-41
2022/03/29 00:11:04;;;;;;;21.77;7.72;;;;;;;4.67;89.15;101399.13;4991521;28;20189;-44
2022/03/29 00:13:29;;;;;;;25.83;7.75;;;;;;;4.54;89.24;101388.56;4992095;28;20514;-43
2022/03/29 00:15:55;;;;;;;27.35;7.60;;;;;;;4.48;89.60;101378.00;4991956;28;20265;-42
2022/03/29 00:18:21;;;;;;;27.38;7.10;;;;;;;4.38;89.89;101356.81;4992075;28;20227;-44
2022/03/29 00:20:46;;;;;;;27.88;5.97;;;;;;;4.28;89.44;101371.88;4990641;28;20616;-45
2022/03/29 00:23:12;;;;;;;30.17;6.03;;;;;;;4.18;89.56;101380.78;4992018;28;20170;-43
2022/03/29 00:25:37;;;;;;;27.98;6.47;;;;;;;4.17;90.05;101373.69;4991946;28;20201;-44
2022/03/29 00:28:03;;;;;;;25.20;6.63;;;;;;;4.17;89.98;101381.63;4991801;28;20177;-43
2022/03/29 00:30:28;;;;;;;34.67;6.15;;;;;;;4.13;89.86;101371.06;4990405;28;20174;-42
2022/03/29 00:32:54;;;;;;;30.67;5.05;;;;;;;4.09;89.96;101361.34;4992447;28;20176;-44
2022/03/29 00:35:20;;;;;;;29.67;5.43;;;;;;;3.86;90.38;101361.38;4991814;28;20209;-44
2022/03/29 00:37:47;;;;;;;23.58;4.90;;;;;;;3.92;90.41;101361.38;4991530;28;20287;-43
2022/03/29 00:40:13;;;;;;;26.10;5.28;;;;;;;3.97;90.84;101360.50;4989371;28;20209;-47
2022/03/29 00:42:40;;;;;;;31.30;5.10;;;;;;;3.89;90.55;101356.09;4989776;28;20185;-48
2022/03/29 00:45:06;;;;;;;33.00;5.28;;;;;;;3.78;90.73;101354.34;4990936;28;20193;-49
2022/03/29 00:47:32;;;;;;;29.58;5.63;;;;;;;3.86;90.76;101347.25;4990957;28;20176;-49
2022/03/29 00:49:58;;;;;;;23.40;5.22;;;;;;;3.76;91.11;101334.91;4990858;28;20211;-44
2022/03/29 00:52:23;;;;;;;30.63;5.28;;;;;;;3.76;91.31;101345.50;4990956;28;20551;-47
2022/03/29 00:54:49;;;;;;;30.15;5.30;;;;;;;3.78;91.14;101341.09;4989184;28;20276;-44
2022/03/29 00:57:15;;;;;;;39.35;5.82;;;;;;;3.73;91.05;101341.09;4990901;28;20549;-48
2022/03/29 00:59:43;;;;;;;22.02;4.95;;;;;;;3.75;91.41;101336.69;4990637;28;20205;-46
2022/03/29 01:02:08;;;;;;;37.45;6.10;;;;;;;3.60;91.63;101328.75;4972895;28;20556;-48
2022/03/29 01:04:34;;;;;;;22.48;4.88;;;;;;;3.64;91.91;101320.78;4990771;28;20216;-47
2022/03/29 01:06:59;;;;;;;23.73;4.68;;;;;;;3.62;92.05;101330.50;4988868;28;20558;-47
2022/03/29 01:09:26;;;;;;;29.85;5.03;;;;;;;3.59;92.30;101319.06;4988985;28;20161;-48
2022/03/29 01:11:53;;;;;;;35.50;5.72;;;;;;;3.48;92.75;101322.59;4989005;28;20177;-45
2022/03/29 01:14:22;;;;;;;25.05;5.03;;;;;;;3.44;92.48;101312.88;4990582;28;20178;-48
2022/03/29 01:19:33;;;;;;;23.10;5.03;;;;;;;3.43;92.64;101308.47;4990163;28;20687;-48
2022/03/29 01:22:00;;;;;;;28.88;5.60;;;;;;;3.34;92.87;101310.25;4988854;28;20198;-47
2022/03/29 01:24:27;;;;;;;34.25;5.32;;;;;;;3.33;93.06;101319.09;4989129;28;20169;-44
2022/03/29 01:26:56;;;;;;;35.63;5.38;;;;;;;3.23;93.23;101312.88;4990591;28;20235;-46
2022/03/29 01:29:22;;;;;;;24.30;4.43;;;;;;;3.23;93.66;101310.25;4990584;28;20177;-47
2022/03/29 01:31:51;;;;;;;30.35;5.53;;;;;;;3.32;93.50;101317.31;4988768;28;20185;-46
2022/03/29 01:34:20;;;;;;;22.17;4.50;;;;;;;3.33;93.61;101314.66;4990593;28;20265;-48
2022/03/29 01:36:47;;;;;;;32.55;5.82;;;;;;;3.32;93.49;101314.66;4989077;28;20660;-48
2022/03/29 01:39:13;;;;;;;30.23;4.68;;;;;;;3.33;93.72;101309.38;4990432;28;20271;-48
2022/03/29 01:41:38;;;;;;;30.67;4.88;;;;;;;3.29;93.98;101300.53;4989186;28;20264;-44
2022/03/29 01:44:06;;;;;;;25.45;4.40;;;;;;;3.29;93.98;101297.88;4990302;28;20169;-46
2022/03/29 01:46:31;;;;;;;20.40;4.80;;;;;;;3.34;94.16;101292.56;4989225;28;20276;-48
2022/03/29 01:48:59;;;;;;;26.23;4.90;;;;;;;3.25;93.83;101287.28;4990055;28;20412;-48
2022/03/29 01:51:25;;;;;;;24.40;5.05;;;;;;;3.17;94.05;101283.75;4983739;28;20268;-47
2022/03/29 01:53:59;;;;;;;27.80;5.22;;;;;;;3.16;94.12;101287.31;4991810;28;20791;-44
2022/03/29 01:56:29;;;;;;;37.50;5.88;;;;;;;3.16;94.18;101295.25;5009649;28;20195;-44
2022/03/29 01:58:56;;;;;;;31.67;5.82;;;;;;;3.04;94.44;101274.94;5009920;28;20291;-47
2022/03/29 02:01:21;;;;;;;31.10;5.35;;;;;;;3.04;94.71;101277.59;5007345;28;20184;-44
2022/03/29 02:03:47;;;;;;;25.15;5.00;;;;;;;2.94;95.03;101278.50;4988921;28;20189;-45
2022/03/29 02:06:13;;;;;;;28.63;4.25;;;;;;;2.92;95.50;101270.53;4996596;28;20215;-45
2022/03/29 02:08:39;;;;;;;26.23;5.45;;;;;;;2.99;95.66;101266.13;5009560;28;20184;-44
2022/03/29 02:11:04;;;;;;;25.17;4.60;;;;;;;2.98;95.87;101273.19;5009145;28;20167;-43
2022/03/29 02:13:29;;;;;;;24.38;5.13;;;;;;;2.93;95.64;101277.63;5008144;28;20216;-45
2022/03/29 02:15:55;;;;;;;26.38;4.35;;;;;;;2.92;95.94;101269.66;5009747;28;20582;-42
2022/03/29 02:18:20;;;;;;;18.90;3.88;;;;;;;2.92;96.08;101253.78;5008678;28;20622;-44
2022/03/29 02:20:47;;;;;;;23.60;4.45;;;;;;;2.93;96.12;101264.38;5012783;28;20191;-46
2022/03/29 02:23:14;;;;;;;26.00;4.07;;;;;;;2.93;95.77;101251.16;5013615;28;20197;-44
2022/03/29 02:25:40;;;;;;;25.38;4.47;;;;;;;2.82;95.63;101250.22;5011559;28;20675;-43
2022/03/29 02:28:06;;;;;;;21.35;3.72;;;;;;;2.83;95.68;101254.66;5013334;28;20180;-45
2022/03/29 02:30:32;;;;;;;30.35;5.30;;;;;;;2.85;95.34;101255.53;5012656;28;20231;-45
2022/03/29 02:32:58;;;;;;;22.73;4.68;;;;;;;2.86;95.22;101244.97;5012741;28;20197;-44
2022/03/29 02:35:24;;;;;;;31.45;5.20;;;;;;;2.83;95.29;101258.19;5013085;28;20551;-43
2022/03/29 02:37:49;;;;;;;24.23;4.18;;;;;;;2.75;95.61;101251.13;5013025;28;20272;-46
2022/03/29 02:40:14;;;;;;;22.10;4.32;;;;;;;2.77;95.58;101246.72;5012428;28;20258;-46
2022/03/29 02:42:45;;;;;;;27.90;4.95;;;;;;;2.74;95.61;101250.25;5012728;28;20263;-44
2022/03/29 02:45:15;;;;;;;26.55;5.30;;;;;;;2.73;95.30;101250.22;5004268;28;20209;-48
2022/03/29 02:47:42;;;;;;;26.50;4.63;;;;;;;2.57;95.90;101257.28;4992900;28;20504;-43
2022/03/29 02:50:08;;;;;;;24.05;4.32;;;;;;;2.50;96.06;101248.47;4993007;28;20185;-45
2022/03/29 02:52:33;;;;;;;27.88;4.70;;;;;;;2.56;96.22;101251.13;4992658;28;20169;-45
2022/03/29 02:54:58;;;;;;;22.20;4.25;;;;;;;2.43;96.96;101255.50;4992943;28;20267;-43
2022/03/29 02:57:24;;;;;;;19.25;4.40;;;;;;;2.55;96.55;101254.63;4990486;28;20200;-47
2022/03/29 02:59:49;;;;;;;24.88;4.30;;;;;;;2.47;96.72;101249.34;4992886;28;20258;-47
2022/03/29 03:02:15;;;;;;;23.52;4.45;;;;;;;2.52;97.19;101240.53;4991216;28;20534;-44
2022/03/29 03:04:40;;;;;;;24.08;4.15;;;;;;;2.44;96.89;101240.50;4993042;28;20205;-44
2022/03/29 03:07:05;;;;;;;27.17;4.32;;;;;;;2.35;97.29;101235.22;4992826;28;20188;-45
2022/03/29 03:09:31;;;;;;;30.90;5.10;;;;;;;2.32;97.96;101227.25;4992945;28;20165;-43
2022/03/29 03:11:56;;;;;;;22.45;3.78;;;;;;;2.34;97.48;101239.63;4992688;28;20176;-43
2022/03/29 03:14:22;;;;;;;30.92;4.75;;;;;;;2.37;97.96;101239.63;4991169;28;20209;-44
2022/03/29 03:16:47;;;;;;;27.58;4.60;;;;;;;2.37;97.88;101239.63;4992642;28;20209;-45
2022/03/29 03:19:13;;;;;;;22.27;4.55;;;;;;;2.31;98.07;101244.00;4992538;28;20204;-44
2022/03/29 03:21:38;;;;;;;24.67;5.10;;;;;;;2.24;98.10;101232.53;4991918;28;20174;-44
2022/03/29 03:24:04;;;;;;;20.00;3.88;;;;;;;2.31;98.04;101239.59;4992480;28;20244;-43
2022/03/29 03:26:30;;;;;;;21.98;4.90;;;;;;;2.23;97.58;101242.22;4992419;28;20225;-44
2022/03/29 03:29:00;;;;;;;28.63;5.25;;;;;;;2.20;97.62;101241.34;4992443;28;20731;-47
2022/03/29 03:31:25;;;;;;;27.73;4.60;;;;;;;2.12;97.75;101237.78;4991029;28;20269;-42
2022/03/29 03:33:50;;;;;;;26.98;3.90;;;;;;;2.12;97.75;101237.78;4992343;28;20176;-44
2022/03/29 03:36:16;;;;;;;21.15;4.60;;;;;;;2.19;98.02;101231.66;4992468;28;20228;-44
2022/03/29 03:38:41;;;;;;;22.70;4.05;;;;;;;2.16;98.03;101234.28;4991906;28;20244;-44
2022/03/29 03:41:07;;;;;;;21.25;4.35;;;;;;;2.09;97.82;101228.09;4992097;28;20181;-44
2022/03/29 03:43:32;;;;;;;26.80;4.78;;;;;;;2.11;97.93;101230.75;4992403;28;20237;-44
2022/03/29 03:45:58;;;;;;;20.80;4.25;;;;;;;2.17;98.08;101234.28;4991670;28;20204;-44
2022/03/29 03:48:24;;;;;;;26.17;4.68;;;;;;;2.09;97.44;101240.44;4992220;28;20201;-46
2022/03/29 03:50:49;;;;;;;23.83;3.85;;;;;;;2.15;97.24;101243.09;4991948;28;20261;-46
2022/03/29 03:53:15;;;;;;;28.80;4.65;;;;;;;2.04;97.94;101233.34;4989788;28;20178;-45
2022/03/29 03:55:41;;;;;;;17.02;3.55;;;;;;;2.20;97.59;101242.22;4991381;28;20185;-44
2022/03/29 03:58:06;;;;;;;22.33;4.38;;;;;;;2.01;97.52;101230.72;4991681;28;20189;-46
2022/03/29 04:00:32;;;;;;;22.88;3.92;;;;;;;2.06;97.73;101228.97;4991185;28;20192;-44
2022/03/29 04:02:59;;;;;;;16.90;4.32;;;;;;;1.94;97.92;101228.91;4989762;28;20196;-43
2022/03/29 04:05:26;;;;;;;20.83;3.78;;;;;;;1.93;97.93;101216.59;4991400;28;20219;-45
2022/03/29 04:07:51;;;;;;;25.45;4.10;;;;;;;1.88;98.92;101220.06;4991780;28;20178;-45
2022/03/29 04:10:17;;;;;;;17.67;3.72;;;;;;;1.90;98.44;101229.78;4991437;28;20177;-45
2022/03/29 04:12:42;;;;;;;20.52;3.92;;;;;;;2.09;98.31;101222.81;4989986;28;20643;-45
2022/03/29 04:15:08;;;;;;;31.00;5.03;;;;;;;2.01;98.39;101229.81;4991344;28;20678;-46
2022/03/29 04:17:35;;;;;;;19.85;3.67;;;;;;;1.98;98.72;101216.59;4989657;28;20169;-45
2022/03/29 04:20:01;;;;;;;21.88;4.00;;;;;;;1.94;98.69;101220.97;4991484;28;20288;-44
2022/03/29 04:22:27;;;;;;;19.90;3.78;;;;;;;1.86;98.32;101214.81;4990761;28;20185;-45
2022/03/29 04:24:52;;;;;;;23.98;4.95;;;;;;;1.87;98.84;101215.69;4991336;28;20193;-44
2022/03/29 04:27:18;;;;;;;22.02;4.18;;;;;;;1.84;98.80;101216.56;4991371;28;20239;-44
2022/03/29 04:29:43;;;;;;;24.05;4.43;;;;;;;1.84;98.57;101214.78;4991242;28;20337;-43
2022/03/29 04:32:09;;;;;;;29.45;4.00;;;;;;;1.82;98.82;101215.69;4991001;28;20277;-46
2022/03/29 04:34:34;;;;;;;21.90;4.40;;;;;;;1.81;99.07;101206.84;4991053;28;20196;-44
2022/03/29 04:37:00;;;;;;;20.63;3.78;;;;;;;1.81;99.08;101205.97;4991210;28;20181;-43
2022/03/29 04:39:26;;;;;;;17.52;3.53;;;;;;;1.79;99.02;101210.34;4991005;28;20193;-44
2022/03/29 04:41:52;;;;;;;21.70;3.90;;;;;;;1.78;98.94;101204.19;4990336;28;20595;-48
2022/03/29 04:44:17;;;;;;;26.60;3.63;;;;;;;1.64;98.65;101212.06;4989118;28;20177;-45
2022/03/29 04:46:43;;;;;;;27.88;3.88;;;;;;;1.59;99.22;101205.88;4971217;28;20671;-47
2022/03/29 04:49:08;;;;;;;17.27;3.65;;;;;;;1.59;99.50;101205.88;4971619;28;20182;-45
2022/03/29 04:51:34;;;;;;;24.40;4.18;;;;;;;1.51;99.82;101204.97;4971244;28;20582;-44
2022/03/29 04:54:01;;;;;;;24.05;4.20;;;;;;;1.54;99.49;101210.25;4970160;28;20599;-43
2022/03/29 04:56:27;;;;;;;19.23;4.07;;;;;;;1.63;99.74;101197.09;4971185;28;20202;-45
2022/03/29 04:58:52;;;;;;;21.48;3.60;;;;;;;1.61;99.63;101197.97;4971008;28;20916;-43
2022/03/29 05:01:18;;;;;;;24.65;4.07;;;;;;;1.64;99.98;101190.94;4971008;28;20186;-44
2022/03/29 05:03:43;;;;;;;21.77;3.75;;;;;;;1.56;99.69;101190.03;4971003;28;20285;-46
2022/03/29 05:06:09;;;;;;;22.90;2.83;;;;;;;1.58;99.64;101196.19;4970981;28;20196;-43
2022/03/29 05:08:34;;;;;;;24.88;5.18;;;;;;;1.61;99.63;101195.31;4971165;28;20172;-44
2022/03/29 05:11:00;;;;;;;22.15;3.80;;;;;;;1.65;99.58;101197.97;4970350;28;20177;-46
2022/03/29 05:13:27;;;;;;;21.83;3.60;;;;;;;1.67;99.15;101202.41;4971118;28;20173;-47
2022/03/29 05:15:53;;;;;;;23.55;3.75;;;;;;;1.60;99.13;101194.44;4970095;28;20257;-45
2022/03/29 05:18:18;;;;;;;25.27;4.47;;;;;;;1.58;99.17;101190.91;4970756;28;20166;-44
2022/03/29 05:20:43;;;;;;;20.75;4.15;;;;;;;1.72;99.25;101193.59;4953422;28;20244;-43
2022/03/29 05:23:09;;;;;;;19.83;3.90;;;;;;;1.73;99.46;101205.03;4970875;28;20193;-43
2022/03/29 05:25:35;;;;;;;20.17;3.45;;;;;;;1.92;98.75;101198.94;4969651;28;20610;-46
2022/03/29 05:28:02;;;;;;;18.48;3.90;;;;;;;1.81;98.68;101200.69;4970984;28;20261;-43
2022/03/29 05:30:27;;;;;;;15.13;4.07;;;;;;;1.91;99.00;101197.19;4969166;28;20178;-47
2022/03/29 05:32:57;;;;;;;20.52;4.18;;;;;;;1.93;98.16;101190.16;4970960;28;20240;-44
2022/03/29 05:35:29;;;;;;;22.88;3.75;;;;;;;1.89;98.27;101190.16;4970506;28;20572;-45
2022/03/29 05:37:57;;;;;;;16.55;3.60;;;;;;;1.83;98.46;101183.09;4969605;28;20217;-44
2022/03/29 05:40:24;;;;;;;17.45;3.72;;;;;;;2.01;98.34;101191.06;4970459;28;20260;-46
2022/03/29 05:42:50;;;;;;;13.13;3.72;;;;;;;2.02;98.18;101182.25;4970483;28;20170;-44
2022/03/29 05:45:15;;;;;;;23.50;4.05;;;;;;;2.04;98.02;101191.06;4970696;28;20206;-44
2022/03/29 05:50:27;;;;;;;20.98;3.97;;;;;;;2.02;97.58;101186.66;4970635;28;20658;-46
2022/03/29 05:52:53;;;;;;;23.85;3.90;;;;;;;2.03;97.32;101191.97;4969509;28;20252;-46
2022/03/29 05:55:19;;;;;;;25.17;3.88;;;;;;;2.11;96.89;101188.44;4971719;28;20198;-43
2022/03/29 05:57:44;;;;;;;18.00;3.45;;;;;;;2.21;96.73;101182.31;4971784;28;20193;-44
2022/03/29 06:00:11;;;;;;;18.25;3.10;;;;;;;2.38;96.16;101184.97;4972455;28;20297;-44
2022/03/29 06:02:42;;;;;;;20.60;3.22;;;;;;;2.62;96.17;101182.34;4969831;28;20633;-46
2022/03/29 06:05:09;;;;;;;19.10;3.20;;;;;;;2.91;95.15;101176.16;4975493;28;20236;-46
2022/03/29 06:07:34;;;;;;;22.58;4.00;;;;;;;3.12;93.80;101163.75;4973046;28;20225;-44
2022/03/29 06:10:00;;;;;;;19.10;4.22;;;;;;;3.07;92.64;101169.94;4973150;28;20221;-45
2022/03/29 06:12:25;;;;;;;20.98;6.28;;;;;;;3.43;91.81;101173.41;4976312;28;20166;-44
2022/03/29 06:14:51;;;;;;;20.92;3.42;;;;;;;3.33;90.23;101171.66;4973974;28;20726;-44
2022/03/29 06:17:17;;;;;;;23.15;4.03;;;;;;;3.42;89.67;101171.63;4973882;28;20174;-47
2022/03/29 06:19:44;;;;;;;20.50;3.38;;;;;;;3.71;89.18;101174.13;4973833;28;20244;-46
2022/03/29 06:22:10;;;;;;;15.80;3.80;;;;;;;4.10;87.75;101174.81;4973292;28;20193;-46
2022/03/29 06:24:35;;;;;;;19.65;3.42;;;;;;;4.22;86.70;101183.59;4973440;28;20560;-44
2022/03/29 06:27:01;;;;;;;13.20;3.20;;;;;;;4.40;85.70;101174.66;4972196;28;20182;-46
2022/03/29 06:29:27;;;;;;;15.65;3.30;;;;;;;4.33;85.34;101173.81;4973642;28;20233;-46
2022/03/29 06:31:53;;;;;;;12.73;2.85;;;;;;;4.54;84.95;101178.06;4973452;28;20224;-46
2022/03/29 06:34:19;;;;;;;21.00;3.45;;;;;;;3.97;84.88;101177.56;4973830;28;20193;-46
2022/03/29 06:36:45;;;;;;;18.50;3.45;;;;;;;4.10;85.60;101182.78;4973430;28;20186;-45
2022/03/29 06:39:12;;;;;;;11.77;3.17;;;;;;;4.43;84.65;101167.53;4982206;28;20193;-46
2022/03/29 06:41:38;;;;;;;18.50;3.60;;;;;;;4.48;83.89;101173.69;4992833;28;20174;-44
2022/03/29 06:44:06;;;;;;;20.95;3.45;;;;;;;4.74;82.88;101169.94;4993642;28;20549;-45
2022/03/29 06:46:31;;;;;;;17.02;3.40;;;;;;;4.97;82.53;101155.59;4992912;28;20185;-47
2022/03/29 06:48:57;;;;;;;21.58;4.60;;;;;;;5.16;81.30;101152.72;4991739;28;20192;-42
2022/03/29 06:51:23;;;;;;;17.95;3.53;;;;;;;5.20;80.25;101150.88;4992458;28;20176;-43
2022/03/29 06:53:49;;;;;;;15.75;3.15;;;;;;;5.12;80.42;101152.78;4992937;28;20276;-44
2022/03/29 06:56:16;;;;;;;14.55;4.28;;;;;;;4.95;79.85;101147.63;4992699;28;20340;-45
2022/03/29 06:58:42;;;;;;;12.55;2.63;;;;;;;5.45;79.10;101140.00;4992889;28;20210;-44
2022/03/29 07:01:07;;;;;;;12.23;2.80;;;;;;;5.51;78.13;101154.09;4992255;28;20658;-44
2022/03/29 07:03:35;;;;;;;14.55;2.45;;;;;;;5.86;77.40;101149.19;4992533;28;20706;-43
2022/03/29 07:06:03;;;;;;;16.60;3.20;;;;;;;5.90;77.49;101151.81;4979821;28;20316;-44
2022/03/29 07:08:30;;;;;;;17.58;3.50;;;;;;;6.17;76.53;101152.34;4972749;28;20205;-45
2022/03/29 07:13:41;;;;;;;14.07;2.83;;;;;;;6.13;75.75;101147.97;4972956;28;20174;-46
2022/03/29 07:16:08;;;;;;;14.35;3.17;;;;;;;6.17;75.10;101147.03;4971656;28;20580;-46
2022/03/29 07:18:33;;;;;;;13.90;2.65;;;;;;;6.51;75.01;101134.06;4972872;28;20202;-45
2022/03/29 07:20:59;;;;;;;18.25;2.97;;;;;;;6.64;75.26;101139.19;4972813;28;20185;-45
2022/03/29 07:23:25;;;;;;;20.35;3.70;;;;;;;6.88;72.71;101138.75;4973048;28;20170;-45
2022/03/29 07:25:50;;;;;;;20.92;3.40;;;;;;;6.73;72.96;101147.00;4972552;28;20208;-46
2022/03/29 07:28:16;;;;;;;19.33;3.70;;;;;;;6.73;73.16;101139.03;4972896;28;20253;-45
2022/03/29 07:30:43;;;;;;;20.20;3.45;;;;;;;6.90;73.20;101134.28;4972246;28;20228;-44
2022/03/29 07:33:10;;;;;;;16.15;3.55;;;;;;;6.80;72.79;101135.38;4971406;28;20265;-44
2022/03/29 07:35:36;;;;;;;16.98;3.38;;;;;;;6.83;73.67;101129.97;4972999;28;20249;-44
2022/03/29 07:38:04;;;;;;;15.90;3.30;;;;;;;6.75;72.63;101132.75;4972779;28;20173;-44
2022/03/29 07:40:30;;;;;;;16.77;2.88;;;;;;;7.00;72.26;101137.66;4972653;28;20257;-45
2022/03/29 07:42:57;;;;;;;13.38;2.90;;;;;;;7.09;72.67;101137.50;4972690;28;20345;-44
2022/03/29 07:45:23;;;;;;;14.68;3.47;;;;;;;7.14;72.28;101146.25;4972187;28;20209;-45
2022/03/29 07:47:52;;;;;;;19.70;3.40;;;;;;;7.31;72.25;101137.94;4972611;28;20200;-46
2022/03/29 07:50:18;;;;;;;18.88;4.15;;;;;;;7.19;70.97;101128.41;4972393;28;20171;-46
2022/03/29 07:52:44;;;;;;;20.30;3.10;;;;;;;7.09;70.28;101128.63;4972179;28;20178;-44
2022/03/29 07:55:12;;;;;;;19.02;3.58;;;;;;;6.52;72.18;101141.16;4972529;28;20189;-45
2022/03/29 07:57:38;;;;;;;20.20;3.33;;;;;;;6.92;71.28;101137.78;4972167;28;20170;-43
2022/03/29 08:00:31;;;;;;;15.00;3.35;;;;;;;6.84;71.07;101136.16;4972235;28;20248;-43
2022/03/29 08:02:51;;;;;;;14.95;3.45;;;;;;;7.32;70.52;101138.81;4971409;28;20597;-44
2022/03/29 08:05:16;;;;;;;18.65;3.17;;;;;;;7.26;70.63;101125.59;4989032;28;20405;-45
2022/03/29 08:07:42;;;;;;;15.20;3.70;;;;;;;7.71;68.85;101128.25;4972563;28;20225;-45
2022/03/29 08:10:08;;;;;;;18.17;3.22;;;;;;;7.75;68.27;101133.47;4972002;28;20253;-43
2022/03/29 08:12:34;;;;;;;14.65;3.08;;;;;;;7.94;68.87;101130.41;4971495;28;20170;-44
2022/03/29 08:15:00;;;;;;;14.90;3.40;;;;;;;7.94;68.04;101138.44;4979963;28;20747;-44
2022/03/29 08:17:26;;;;;;;16.08;3.28;;;;;;;7.60;66.86;101139.13;4990573;28;20177;-43
2022/03/29 08:19:52;;;;;;;17.40;3.47;;;;;;;7.66;65.78;101131.00;4986528;28;20197;-43
2022/03/29 08:22:17;;;;;;;18.73;2.90;;;;;;;7.67;66.81;101127.41;4970633;28;20194;-43
2022/03/29 08:24:42;;;;;;;13.55;3.42;;;;;;;7.74;66.04;101133.50;4971635;28;20186;-44
2022/03/29 08:27:09;;;;;;;16.33;3.08;;;;;;;7.69;65.84;101130.06;4971745;28;20185;-43
2022/03/29 08:29:34;;;;;;;16.02;3.05;;;;;;;7.82;66.59;101127.09;4963984;28;20171;-47
2022/03/29 08:31:59;;;;;;;14.43;3.20;;;;;;;7.67;66.09;101129.22;4970384;28;20186;-46
2022/03/29 08:34:25;;;;;;;12.25;2.80;;;;;;;7.78;65.94;101138.75;4969428;28;20594;-45
2022/03/29 08:36:52;;;;;;;15.10;3.17;;;;;;;8.10;65.80;101133.59;4968477;28;20240;-46
2022/03/29 08:39:18;;;;;;;16.45;3.13;;;;;;;8.07;63.97;101128.31;4977354;28;20780;-47
2022/03/29 08:41:52;;;;;;;15.90;3.17;;;;;;;8.00;64.11;101128.50;4996302;28;20256;-45
2022/03/29 08:44:19;;;;;;;15.05;3.55;;;;;;;8.20;64.13;101114.69;4972829;28;20299;-46
2022/03/29 08:46:46;;;;;;;12.77;2.88;;;;;;;8.61;64.24;101107.44;4990368;28;20593;-47
2022/03/29 08:49:14;;;;;;;13.88;3.03;;;;;;;8.35;63.13;101117.88;4986414;28;20184;-46
2022/03/29 08:51:40;;;;;;;16.27;3.10;;;;;;;8.34;63.82;101116.13;4975514;28;20189;-46
2022/03/29 08:54:06;;;;;;;13.10;3.00;;;;;;;8.27;63.35;101111.88;4971515;28;20182;-46
2022/03/29 08:56:33;;;;;;;14.95;2.45;;;;;;;7.86;62.89;101116.38;4968934;28;20635;-45
2022/03/29 08:58:59;;;;;;;14.13;3.10;;;;;;;7.64;62.72;101116.84;4971329;28;20205;-46
2022/03/29 09:01:24;;;;;;;16.80;3.03;;;;;;;8.23;63.63;101114.59;4969551;28;20257;-46
2022/03/29 09:04:12;;;;;;;11.70;2.97;;;;;;;8.15;63.49;101115.69;4969759;28;20514;-47
2022/03/29 09:06:50;;;;;;;12.05;2.75;;;;;;;8.04;62.72;101108.81;4983457;28;20189;-45
2022/03/29 09:09:24;;;;;;;19.77;3.05;;;;;;;8.03;62.85;101111.53;4989175;28;20228;-48
2022/03/29 09:11:51;;;;;;;10.95;2.78;;;;;;;8.05;62.21;101115.91;4989599;28;20173;-45
2022/03/29 09:14:18;;;;;;;9.63;2.80;;;;;;;7.98;61.79;101105.41;4990402;28;20204;-44
2022/03/29 09:16:44;;;;;;;11.05;2.60;;;;;;;8.44;62.00;101097.22;4988984;28;20516;-46
2022/03/29 09:19:09;;;;;;;13.98;2.88;;;;;;;8.49;60.54;101088.22;5003262;28;20255;-46
2022/03/29 09:21:42;;;;;;;13.82;2.75;;;;;;;8.40;60.92;101081.28;5008958;28;20172;-45
2022/03/29 09:24:14;;;;;;;18.23;3.10;;;;;;;8.80;59.62;101080.28;5008787;28;20199;-48
2022/03/29 09:26:42;;;;;;;15.35;3.08;;;;;;;8.89;59.07;101082.69;5009667;28;20275;-47
2022/03/29 09:29:20;;;;;;;11.00;2.80;;;;;;;9.15;57.15;101071.28;4984616;28;20566;-46
2022/03/29 09:31:50;;;;;;;11.93;2.85;;;;;;;9.53;57.31;101077.28;4970683;28;20178;-46
2022/03/29 09:34:23;;;;;;;15.93;2.67;;;;;;;9.53;55.21;101073.75;4975030;28;20218;-43
2022/03/29 09:36:52;;;;;;;11.75;2.58;;;;;;;9.62;54.47;101068.09;4973589;28;20194;-48
2022/03/29 09:39:30;;;;;;;12.10;2.40;;;;;;;9.50;56.19;101058.66;4974091;28;20332;-46
2022/03/29 09:42:14;;;;;;;11.95;2.40;;;;;;;9.10;55.37;101058.97;4972986;28;20205;-45
2022/03/29 09:44:50;;;;;;;8.48;2.33;;;;;;;9.20;54.65;101063.13;4972996;28;20277;-45
2022/03/29 09:47:20;;;;;;;14.70;2.60;;;;;;;9.15;56.67;101062.38;4974459;28;20178;-47
2022/03/29 09:50:19;;;;;;;11.23;2.47;;;;;;;9.38;56.12;101059.91;4974449;28;20162;-45
2022/03/29 09:52:44;;;;;;;12.40;2.42;;;;;;;9.43;54.03;101060.66;4974088;28;20206;-47
2022/03/29 09:55:15;;;;;;;11.65;2.70;;;;;;;9.94;52.35;101045.69;4974315;28;20277;-45
2022/03/29 09:57:45;;;;;;;11.40;2.65;;;;;;;9.96;52.34;101051.00;4974378;28;20208;-46
2022/03/29 10:00:17;;;;;;;6.03;1.88;;;;;;;10.10;52.44;101049.66;4974327;28;20212;-47
2022/03/29 10:02:45;;;;;;;8.70;2.10;;;;;;;10.48;51.38;101038.59;4973465;28;20198;-47
2022/03/29 10:05:11;;;;;;;9.52;2.05;;;;;;;10.11;51.93;101045.16;4978709;28;20331;-47
2022/03/29 10:07:45;;;;;;;9.35;2.42;;;;;;;10.26;51.11;101043.78;4993970;28;20177;-47
2022/03/29 10:10:11;;;;;;;5.97;2.03;;;;;;;10.42;48.92;101039.69;4993768;28;20186;-48
2022/03/29 10:12:37;;;;;;;11.23;3.00;;;;;;;9.85;51.41;101054.03;4993350;28;20173;-48
2022/03/29 10:15:04;;;;;;;7.82;2.20;;;;;;;9.80;51.83;101040.81;4993519;28;20709;-48
2022/03/29 10:17:31;;;;;;;8.95;2.40;;;;;;;9.53;50.21;101041.66;4992349;28;20213;-48
2022/03/29 10:19:57;;;;;;;11.95;2.63;;;;;;;9.78;51.46;101033.75;4992078;28;20220;-47
2022/03/29 10:22:23;;;;;;;7.78;2.10;;;;;;;10.05;51.29;101038.19;4993178;28;20174;-46
2022/03/29 10:24:48;;;;;;;9.77;2.28;;;;;;;10.06;48.73;101031.94;4993562;28;20668;-44
2022/03/29 10:27:16;;;;;;;6.75;1.98;;;;;;;10.06;47.78;101017.69;4993201;28;20683;-45
2022/03/29 10:29:42;;;;;;;7.72;1.90;;;;;;;9.91;48.30;101027.06;4993271;28;20166;-43
2022/03/29 10:32:08;;;;;;;8.75;2.35;;;;;;;10.17;47.63;101010.16;4992610;28;20184;-45
2022/03/29 10:34:37;;;;;;;5.88;1.80;;;;;;;10.21;48.07;101014.50;4993181;28;20193;-47
2022/03/29 10:37:04;;;;;;;8.88;2.05;;;;;;;10.22;48.11;101001.97;4993353;28;20679;-47
2022/03/29 10:39:48;;;;;;;8.55;1.92;;;;;;;9.93;46.81;101001.16;4992546;28;20201;-44
2022/03/29 10:42:29;;;;;;;7.53;1.90;;;;;;;10.56;47.29;101008.84;4993007;28;20612;-45
2022/03/29 10:45:18;;;;;;;8.52;2.30;;;;;;;10.32;47.31;100998.09;4992857;28;20684;-43
2022/03/29 10:47:55;;;;;;;12.25;2.60;;;;;;;9.61;49.61;101011.06;4993312;28;20181;-47
2022/03/29 10:50:21;;;;;;;11.13;2.50;;;;;;;9.51;50.60;101006.94;4993096;28;20636;-43
2022/03/29 10:52:49;;;;;;;10.52;2.45;;;;;;;9.73;51.38;101008.91;4992300;28;20319;-44
2022/03/29 10:55:20;;;;;;;8.90;2.13;;;;;;;9.65;50.78;101011.84;4992792;28;20255;-44
2022/03/29 10:58:07;;;;;;;7.78;2.15;;;;;;;9.69;50.92;101008.16;4992704;28;20722;-45
2022/03/29 11:00:50;;;;;;;8.73;1.70;;;;;;;9.95;52.21;101001.06;4992926;28;20659;-43
2022/03/29 11:03:23;;;;;;;9.10;2.10;;;;;;;10.08;50.13;101002.44;4991996;28;20189;-44
2022/03/29 11:06:11;;;;;;;7.20;1.80;;;;;;;9.66;49.95;101000.22;4992481;28;20284;-45
2022/03/29 11:08:42;;;;;;;10.40;2.00;;;;;;;9.87;49.20;100999.53;4991303;28;20189;-44
2022/03/29 11:11:28;;;;;;;6.85;1.80;;;;;;;9.95;49.08;100993.03;4991980;28;20631;-46
2022/03/29 11:13:54;;;;;;;5.90;2.13;;;;;;;10.23;48.79;100984.97;4992285;28;20277;-43
2022/03/29 11:16:29;;;;;;;7.88;2.13;;;;;;;10.54;50.25;100991.97;4990815;28;20279;-45
2022/03/29 11:18:55;;;;;;;8.68;1.90;;;;;;;10.44;48.22;100978.91;4991377;28;20201;-43
2022/03/29 11:21:29;;;;;;;12.57;2.28;;;;;;;10.00;48.05;100980.41;4992140;28;20667;-45
2022/03/29 11:23:58;;;;;;;4.55;1.80;;;;;;;9.87;47.55;100982.59;4991223;28;20219;-47
2022/03/29 11:26:23;;;;;;;6.68;1.65;;;;;;;10.00;48.16;100978.59;4992342;28;20189;-45
2022/03/29 11:28:51;;;;;;;8.32;2.20;;;;;;;10.53;49.18;100977.69;4991985;28;20174;-46
2022/03/29 11:31:18;;;;;;;7.18;1.70;;;;;;;10.16;46.43;100968.22;4991990;28;20189;-43
2022/03/29 11:33:51;;;;;;;7.80;1.75;;;;;;;9.88;47.31;100969.19;4992292;28;20645;-46
2022/03/29 11:36:18;;;;;;;12.27;2.67;;;;;;;9.96;48.83;100968.03;4992327;28;20193;-46